Friedens, Pennsylvania
Current Conditions -  °F | °C
As of 4:55 PM on Monday 22 Dec 2014 (Local Time) from K2G9 Reporting Station
Unknown Precip Unknown Precip  
Wind Chill: 21°   Ceiling: 700
Heat Index: 30°   Visibility: 4mi
Dew Point: 28°   Wind: 10mph
Humidity: 93%   Direction: 130°SE
Pressure: 30.03"   Gusts: NA
Location:  40.05°N, 79°W
Report Text: K2G9 222155Z AUTO 13009KT 4SM UP OVC007 M01/M02 A3003 RMK AO2
Loading
Personal Weather Stations






























Interactive Weather Map New forecast layout! Learn more

10-Day Weather Forecast

Advertisements
Track Severe Weather on mobile